createdAt,value
2023-03-06T00:01:01.626Z,13.08
2023-03-06T00:03:28.678Z,13.10
2023-03-06T00:05:57.614Z,13.10
2023-03-06T00:08:25.872Z,13.10
2023-03-06T00:10:52.961Z,13.08
2023-03-06T00:13:20.047Z,13.09
2023-03-06T00:15:48.610Z,13.06
2023-03-06T00:18:15.523Z,13.08
2023-03-06T00:20:44.032Z,13.07
2023-03-06T00:23:11.394Z,13.10
2023-03-06T00:25:41.754Z,13.11
2023-03-06T00:28:08.450Z,13.08
2023-03-06T00:30:35.877Z,13.08
2023-03-06T00:33:02.536Z,13.09
2023-03-06T00:35:29.199Z,13.09
2023-03-06T00:37:57.872Z,13.11
2023-03-06T00:40:24.491Z,13.08
2023-03-06T00:42:51.324Z,13.07
2023-03-06T00:45:18.068Z,13.06
2023-03-06T00:47:44.702Z,13.06
2023-03-06T00:50:11.557Z,13.07
2023-03-06T00:52:38.425Z,13.06
2023-03-06T00:55:05.673Z,13.03
2023-03-06T00:57:32.339Z,13.07
2023-03-06T00:59:59.014Z,13.05
2023-03-06T01:02:25.775Z,13.04
2023-03-06T01:04:52.447Z,13.05
2023-03-06T01:07:19.176Z,13.07
2023-03-06T01:09:45.805Z,13.05
2023-03-06T01:12:12.528Z,13.05
2023-03-06T01:14:39.237Z,13.07
2023-03-06T01:17:05.916Z,13.06
2023-03-06T01:19:32.525Z,13.05
2023-03-06T01:21:59.248Z,13.05
2023-03-06T01:24:26.021Z,13.05
2023-03-06T01:26:52.984Z,13.08
2023-03-06T01:29:20.015Z,13.06
2023-03-06T01:31:46.718Z,13.06
2023-03-06T01:34:13.375Z,13.07
2023-03-06T01:36:40.106Z,13.05
2023-03-06T01:39:06.760Z,13.05
2023-03-06T01:41:33.475Z,13.06
2023-03-06T01:44:00.228Z,13.05
2023-03-06T01:46:30.326Z,13.04
2023-03-06T01:49:23.023Z,13.06
2023-03-06T01:52:12.149Z,13.03
2023-03-06T01:54:50.319Z,13.02
2023-03-06T01:57:27.257Z,13.02
2023-03-06T01:59:57.786Z,13.03
2023-03-06T02:02:25.331Z,13.04
2023-03-06T02:04:51.991Z,13.06
2023-03-06T02:07:21.306Z,13.05
2023-03-06T02:09:47.924Z,13.03
2023-03-06T02:12:19.144Z,13.03
2023-03-06T02:14:47.120Z,13.03
2023-03-06T02:17:17.046Z,13.02
2023-03-06T02:20:34.109Z,12.99
2023-03-06T02:23:39.748Z,13.04
2023-03-06T02:26:08.984Z,13.00
2023-03-06T02:28:35.801Z,13.03
2023-03-06T02:31:02.484Z,13.00
2023-03-06T02:33:29.966Z,13.02
2023-03-06T02:36:00.049Z,13.01
2023-03-06T02:38:49.354Z,13.02
2023-03-06T02:41:16.786Z,13.05
2023-03-06T02:43:46.308Z,13.01
2023-03-06T02:46:13.124Z,13.03
2023-03-06T02:48:40.062Z,13.03
2023-03-06T02:51:06.866Z,13.06
2023-03-06T02:53:33.524Z,13.03
2023-03-06T02:56:00.749Z,13.03
2023-03-06T02:58:27.881Z,13.02
2023-03-06T03:00:54.650Z,13.02
2023-03-06T03:03:21.305Z,13.01
2023-03-06T03:05:48.056Z,13.04
2023-03-06T03:08:14.700Z,13.01
2023-03-06T03:10:44.559Z,13.02
2023-03-06T03:13:11.222Z,13.06
2023-03-06T03:15:37.998Z,13.01
2023-03-06T03:18:05.026Z,13.02
2023-03-06T03:20:31.755Z,13.05
2023-03-06T03:22:58.479Z,13.01
2023-03-06T03:25:26.375Z,13.01
2023-03-06T03:27:53.085Z,13.00
2023-03-06T03:30:19.857Z,12.96
2023-03-06T03:32:46.487Z,12.99
2023-03-06T03:35:13.510Z,12.97
2023-03-06T03:37:40.475Z,13.00
2023-03-06T03:40:08.241Z,13.01
2023-03-06T03:42:34.895Z,13.00
2023-03-06T03:45:01.625Z,13.02
2023-03-06T03:47:28.260Z,13.00
2023-03-06T03:49:55.003Z,12.97
2023-03-06T03:52:21.758Z,12.99
2023-03-06T03:54:48.453Z,12.99
2023-03-06T03:57:15.137Z,12.96
2023-03-06T03:59:41.774Z,12.97
2023-03-06T04:02:08.439Z,12.94
2023-03-06T04:04:35.143Z,12.96
2023-03-06T04:07:01.859Z,12.97
2023-03-06T04:09:28.575Z,12.96
2023-03-06T04:11:55.230Z,12.94
2023-03-06T04:14:22.242Z,12.94
2023-03-06T04:16:48.909Z,12.93
2023-03-06T04:19:15.501Z,12.94
2023-03-06T04:21:42.148Z,12.92
2023-03-06T04:24:09.176Z,12.93
2023-03-06T04:26:36.242Z,12.91
2023-03-06T04:29:02.957Z,12.92
2023-03-06T04:31:30.156Z,12.91
2023-03-06T04:33:56.864Z,12.89
2023-03-06T04:36:29.805Z,12.89
2023-03-06T04:38:57.154Z,12.89
2023-03-06T04:41:23.842Z,12.87
2023-03-06T04:43:51.551Z,12.89
2023-03-06T04:46:18.468Z,12.88
2023-03-06T04:48:45.166Z,12.88
2023-03-06T04:51:13.293Z,12.87
2023-03-06T04:53:40.295Z,12.86
2023-03-06T04:56:07.496Z,12.87
2023-03-06T04:58:34.179Z,12.86
2023-03-06T05:01:00.996Z,12.84
2023-03-06T05:03:27.793Z,12.84
2023-03-06T05:05:54.866Z,12.86
2023-03-06T05:08:21.827Z,12.86
2023-03-06T05:10:55.824Z,12.85
2023-03-06T05:13:22.458Z,12.86
2023-03-06T05:15:49.099Z,12.82
2023-03-06T05:18:15.736Z,12.82
2023-03-06T05:20:42.412Z,12.83
2023-03-06T05:23:09.073Z,12.82
2023-03-06T05:25:35.726Z,12.81
2023-03-06T05:28:02.335Z,12.80
2023-03-06T05:30:29.040Z,12.81
2023-03-06T05:32:55.801Z,12.81
2023-03-06T05:35:23.228Z,12.80
2023-03-06T05:37:50.122Z,12.81
2023-03-06T05:40:18.760Z,12.78
2023-03-06T05:42:45.860Z,12.77
2023-03-06T05:45:12.693Z,12.79
2023-03-06T05:47:39.486Z,12.76
2023-03-06T05:50:08.393Z,12.77
2023-03-06T05:52:35.170Z,12.74
2023-03-06T05:55:01.986Z,12.76
2023-03-06T05:57:28.627Z,12.76
2023-03-06T05:59:55.287Z,12.74
2023-03-06T06:02:22.008Z,12.73
2023-03-06T06:04:48.685Z,12.77
2023-03-06T06:07:16.602Z,12.73
2023-03-06T06:09:48.052Z,12.72
2023-03-06T06:12:14.736Z,12.75
2023-03-06T06:14:41.473Z,12.75
2023-03-06T06:17:08.157Z,12.75
2023-03-06T06:19:34.863Z,12.75
2023-03-06T06:22:03.847Z,12.75
2023-03-06T06:24:32.146Z,12.74
2023-03-06T06:27:02.005Z,12.73
2023-03-06T06:29:30.391Z,12.76
2023-03-06T06:31:57.185Z,12.73
2023-03-06T06:34:24.843Z,12.74
2023-03-06T06:36:53.534Z,12.73
2023-03-06T06:39:22.153Z,12.73
2023-03-06T06:42:05.582Z,12.72
2023-03-06T06:44:37.382Z,12.74
2023-03-06T06:47:24.062Z,12.74
2023-03-06T06:49:53.344Z,12.74
2023-03-06T06:52:20.497Z,12.77
2023-03-06T06:54:47.416Z,12.77
2023-03-06T06:57:14.852Z,12.76
2023-03-06T06:59:41.585Z,12.73
2023-03-06T07:02:10.655Z,12.78
2023-03-06T07:04:40.978Z,12.76
2023-03-06T07:07:11.056Z,12.74
2023-03-06T07:09:39.910Z,12.76
2023-03-06T07:12:08.003Z,12.75
2023-03-06T07:14:34.623Z,12.74
2023-03-06T07:17:01.266Z,12.76
2023-03-06T07:19:27.977Z,12.74
2023-03-06T07:21:55.071Z,12.75
2023-03-06T07:24:21.868Z,12.74
2023-03-06T07:26:48.594Z,12.77
2023-03-06T07:29:15.803Z,12.76
2023-03-06T07:31:42.829Z,12.78
2023-03-06T07:34:13.303Z,12.81
2023-03-06T07:36:40.547Z,12.78
2023-03-06T07:39:08.780Z,12.77
2023-03-06T07:41:35.954Z,12.80
2023-03-06T07:44:03.395Z,12.79
2023-03-06T07:46:30.094Z,12.79
2023-03-06T07:48:56.985Z,12.81
2023-03-06T07:51:23.683Z,12.86
2023-03-06T07:53:50.444Z,12.87
2023-03-06T07:56:17.590Z,12.88
2023-03-06T07:58:45.825Z,12.85
2023-03-06T08:01:16.210Z,12.85
2023-03-06T08:03:43.357Z,12.86
2023-03-06T08:06:15.479Z,12.85
2023-03-06T08:08:44.868Z,12.89
2023-03-06T08:11:13.047Z,12.87
2023-03-06T08:13:40.883Z,12.82
2023-03-06T08:16:08.139Z,12.82
2023-03-06T08:18:35.008Z,12.78
2023-03-06T08:21:06.431Z,12.79
2023-03-06T08:23:33.875Z,12.83
2023-03-06T08:26:03.789Z,12.81
2023-03-06T08:28:30.519Z,12.79
2023-03-06T08:30:57.880Z,12.80
2023-03-06T08:33:25.427Z,12.81
2023-03-06T08:35:52.866Z,12.84
2023-03-06T08:38:19.486Z,12.88
2023-03-06T08:40:46.378Z,12.87
2023-03-06T08:43:14.435Z,12.92
2023-03-06T08:45:41.301Z,12.90
2023-03-06T08:48:08.126Z,12.91
2023-03-06T08:50:34.852Z,12.91
2023-03-06T08:53:01.600Z,12.89
2023-03-06T08:55:28.400Z,12.89
2023-03-06T08:57:55.212Z,12.89
2023-03-06T09:00:22.072Z,12.91
2023-03-06T09:02:48.718Z,12.82
2023-03-06T09:05:15.453Z,12.82
2023-03-06T09:07:42.076Z,12.88
2023-03-06T09:10:13.823Z,12.84
2023-03-06T09:12:49.418Z,12.88
2023-03-06T09:15:19.336Z,12.91
2023-03-06T09:17:46.154Z,12.94
2023-03-06T09:20:14.046Z,12.87
2023-03-06T09:22:42.628Z,12.88
2023-03-06T09:25:11.170Z,12.90
2023-03-06T09:27:37.865Z,12.90
2023-03-06T09:30:05.271Z,12.91
2023-03-06T09:32:32.011Z,12.92
2023-03-06T09:34:59.059Z,12.97
2023-03-06T09:37:25.774Z,12.96
2023-03-06T09:39:52.516Z,12.95
2023-03-06T09:42:21.649Z,13.04
2023-03-06T09:44:54.631Z,13.17
2023-03-06T09:47:39.498Z,13.21
2023-03-06T09:50:22.245Z,13.26
2023-03-06T09:52:59.367Z,13.28
2023-03-06T09:55:29.038Z,13.20
2023-03-06T09:58:01.626Z,13.20
2023-03-06T10:00:39.764Z,13.18
2023-03-06T10:03:27.656Z,13.21
2023-03-06T10:06:02.800Z,13.25
2023-03-06T10:08:50.104Z,13.26
2023-03-06T10:11:26.424Z,13.32
2023-03-06T10:14:14.293Z,13.36
2023-03-06T10:16:41.348Z,13.36
2023-03-06T10:19:17.428Z,13.35
2023-03-06T10:22:16.808Z,13.37
2023-03-06T10:24:56.574Z,13.35
2023-03-06T10:27:31.943Z,13.33
2023-03-06T10:30:10.820Z,13.45
2023-03-06T10:32:51.303Z,13.51
2023-03-06T10:35:47.892Z,13.51
2023-03-06T10:38:37.568Z,13.58
2023-03-06T10:41:09.044Z,13.57
2023-03-06T10:43:37.046Z,13.55
2023-03-06T10:46:05.303Z,13.55
2023-03-06T10:48:36.212Z,13.60
2023-03-06T10:51:20.094Z,13.63
2023-03-06T10:53:51.690Z,13.70
2023-03-06T10:56:30.530Z,13.71
2023-03-06T10:59:20.067Z,13.77
2023-03-06T11:01:49.864Z,13.79
2023-03-06T11:04:33.837Z,13.72
2023-03-06T11:07:12.448Z,13.66
2023-03-06T11:09:39.610Z,13.84
2023-03-06T11:12:38.593Z,13.91
2023-03-06T11:15:05.399Z,13.96
2023-03-06T11:17:33.300Z,13.97
2023-03-06T11:20:14.979Z,13.85
2023-03-06T11:22:43.485Z,13.85
2023-03-06T11:25:15.052Z,13.83
2023-03-06T11:27:45.608Z,13.80
2023-03-06T11:30:30.496Z,13.84
2023-03-06T11:33:25.867Z,13.78
2023-03-06T11:36:08.683Z,13.74
2023-03-06T11:38:52.778Z,13.72
2023-03-06T11:41:31.980Z,13.76
2023-03-06T11:44:24.740Z,13.82
2023-03-06T11:46:59.410Z,13.87
2023-03-06T11:49:32.737Z,13.94
2023-03-06T11:52:05.813Z,14.00
2023-03-06T11:54:33.779Z,14.00
2023-03-06T11:57:20.532Z,14.08
2023-03-06T12:00:11.657Z,14.28
2023-03-06T12:02:58.770Z,14.41
2023-03-06T12:05:35.160Z,14.61
2023-03-06T12:08:07.623Z,14.52
2023-03-06T12:10:51.673Z,14.37
2023-03-06T12:13:36.346Z,14.04
2023-03-06T12:16:21.059Z,13.82
2023-03-06T12:19:10.952Z,13.72
2023-03-06T12:21:56.540Z,13.85
2023-03-06T12:24:26.113Z,13.84
2023-03-06T12:27:12.553Z,13.84
2023-03-06T12:30:04.806Z,13.81
2023-03-06T12:33:12.838Z,13.76
2023-03-06T12:35:54.946Z,13.83
2023-03-06T12:38:33.629Z,13.76
2023-03-06T12:41:06.188Z,13.75
2023-03-06T12:43:32.892Z,13.75
2023-03-06T12:46:21.784Z,13.80
2023-03-06T12:49:08.653Z,13.77
2023-03-06T12:51:36.242Z,13.73
2023-03-06T12:54:03.824Z,13.79
2023-03-06T12:56:32.087Z,13.88
2023-03-06T12:59:02.754Z,13.94
2023-03-06T13:01:55.645Z,14.02
2023-03-06T13:04:40.518Z,14.02
2023-03-06T13:07:15.087Z,14.00
2023-03-06T13:10:16.369Z,13.97
2023-03-06T13:12:58.400Z,13.94
2023-03-06T13:15:40.484Z,13.90
2023-03-06T13:18:22.244Z,13.87
2023-03-06T13:20:51.190Z,13.85
2023-03-06T13:23:30.479Z,13.86
2023-03-06T13:26:24.504Z,13.90
2023-03-06T13:28:58.308Z,13.87
2023-03-06T13:31:28.118Z,13.92
2023-03-06T13:34:03.895Z,13.89
2023-03-06T13:36:39.595Z,13.96
2023-03-06T13:39:11.084Z,14.04
2023-03-06T13:41:56.771Z,14.08
2023-03-06T13:44:23.603Z,14.00
2023-03-06T13:47:05.092Z,13.92
2023-03-06T13:49:33.663Z,13.99
2023-03-06T13:52:18.277Z,14.00
2023-03-06T13:54:51.242Z,14.03
2023-03-06T13:57:39.548Z,14.00
2023-03-06T14:00:42.441Z,13.98
2023-03-06T14:03:17.945Z,13.94
2023-03-06T14:05:47.067Z,13.91
2023-03-06T14:08:17.612Z,13.90
2023-03-06T14:10:46.541Z,13.90
2023-03-06T14:13:32.101Z,13.92
2023-03-06T14:16:02.071Z,13.91
2023-03-06T14:18:42.463Z,13.82
2023-03-06T14:21:13.723Z,13.73
2023-03-06T14:23:45.174Z,13.76
2023-03-06T14:26:23.096Z,13.67
2023-03-06T14:28:52.505Z,13.69
2023-03-06T14:31:22.330Z,13.78
2023-03-06T14:33:54.532Z,13.75
2023-03-06T14:36:24.252Z,13.82
2023-03-06T14:39:07.607Z,13.81
2023-03-06T14:41:35.820Z,13.84
2023-03-06T14:44:08.544Z,13.86
2023-03-06T14:46:35.530Z,13.87
2023-03-06T14:49:07.358Z,13.87
2023-03-06T14:51:41.974Z,13.78
2023-03-06T14:54:19.663Z,13.81
2023-03-06T14:56:50.552Z,13.66
2023-03-06T14:59:25.960Z,13.66
2023-03-06T15:01:59.394Z,13.72
2023-03-06T15:04:29.430Z,13.75
2023-03-06T15:06:57.202Z,13.60
2023-03-06T15:09:29.709Z,13.57
2023-03-06T15:12:01.305Z,13.71
2023-03-06T15:14:37.334Z,13.76
2023-03-06T15:17:28.310Z,13.78
2023-03-06T15:20:00.728Z,13.84
2023-03-06T15:22:43.552Z,13.75
2023-03-06T15:25:30.193Z,13.72
2023-03-06T15:28:02.623Z,13.73
2023-03-06T15:30:35.223Z,13.68
2023-03-06T15:33:10.801Z,13.69
2023-03-06T15:35:38.585Z,13.68
2023-03-06T15:38:43.089Z,13.74
2023-03-06T15:41:29.066Z,13.70
2023-03-06T15:43:58.460Z,13.65
2023-03-06T15:46:25.460Z,13.58
2023-03-06T15:48:54.077Z,13.60
2023-03-06T15:51:21.437Z,13.64
2023-03-06T15:53:48.141Z,13.65
2023-03-06T15:56:15.485Z,13.65
2023-03-06T15:58:42.668Z,13.62
2023-03-06T16:01:16.435Z,13.65
2023-03-06T16:03:44.654Z,13.67
2023-03-06T16:06:26.582Z,13.66
2023-03-06T16:08:53.248Z,13.67
2023-03-06T16:11:32.412Z,13.64
2023-03-06T16:14:02.208Z,13.66
2023-03-06T16:16:37.470Z,13.69
2023-03-06T16:19:13.981Z,13.66
2023-03-06T16:21:47.214Z,13.71
2023-03-06T16:24:16.069Z,13.63
2023-03-06T16:26:45.312Z,13.64
2023-03-06T16:29:16.875Z,13.60
2023-03-06T16:31:43.659Z,13.62
2023-03-06T16:34:10.273Z,13.63
2023-03-06T16:36:37.015Z,13.61
2023-03-06T16:39:04.277Z,13.63
2023-03-06T16:41:30.971Z,13.64
2023-03-06T16:43:57.812Z,13.61
2023-03-06T16:46:25.795Z,13.65
2023-03-06T16:48:53.190Z,13.65
2023-03-06T16:51:21.769Z,13.63
2023-03-06T16:53:50.867Z,13.63
2023-03-06T16:56:20.422Z,13.62
2023-03-06T16:58:48.012Z,13.60
2023-03-06T17:01:17.685Z,13.57
2023-03-06T17:03:45.350Z,13.59
2023-03-06T17:06:17.073Z,13.57
2023-03-06T17:08:44.244Z,13.54
2023-03-06T17:11:11.763Z,13.54
2023-03-06T17:13:38.487Z,13.54
2023-03-06T17:16:05.854Z,13.55
2023-03-06T17:18:32.709Z,13.53
2023-03-06T17:21:00.176Z,13.53
2023-03-06T17:23:28.808Z,13.52
2023-03-06T17:26:16.055Z,13.47
2023-03-06T17:28:43.073Z,13.52
2023-03-06T17:31:20.372Z,13.54
2023-03-06T17:33:47.058Z,13.54
2023-03-06T17:36:15.141Z,13.56
2023-03-06T17:38:42.695Z,13.55
2023-03-06T17:41:10.860Z,13.55
2023-03-06T17:43:38.961Z,13.57
2023-03-06T17:46:10.133Z,13.56
2023-03-06T17:48:37.001Z,13.57
2023-03-06T17:51:04.782Z,13.54
2023-03-06T17:53:32.170Z,13.53
2023-03-06T17:55:58.802Z,13.59
2023-03-06T17:58:26.608Z,13.62
2023-03-06T18:00:53.568Z,13.61
2023-03-06T18:03:20.403Z,13.60
2023-03-06T18:05:47.126Z,13.60
2023-03-06T18:08:14.195Z,13.58
2023-03-06T18:10:41.662Z,13.56
2023-03-06T18:13:09.405Z,13.59
2023-03-06T18:15:40.379Z,13.59
2023-03-06T18:18:08.095Z,13.58
2023-03-06T18:20:40.072Z,13.57
2023-03-06T18:23:06.798Z,13.57
2023-03-06T18:25:33.522Z,13.58
2023-03-06T18:28:00.185Z,13.56
2023-03-06T18:30:27.279Z,13.60
2023-03-06T18:32:54.559Z,13.60
2023-03-06T18:35:21.863Z,13.59
2023-03-06T18:37:48.582Z,13.58
2023-03-06T18:40:15.422Z,13.60
2023-03-06T18:42:42.246Z,13.58
2023-03-06T18:45:09.924Z,13.60
2023-03-06T18:47:36.619Z,13.60
2023-03-06T18:50:03.598Z,13.59
2023-03-06T18:52:30.303Z,13.59
2023-03-06T18:54:57.452Z,13.60
2023-03-06T18:57:24.256Z,13.59
2023-03-06T18:59:50.978Z,13.59
2023-03-06T19:02:17.724Z,13.60
2023-03-06T19:04:44.443Z,13.58
2023-03-06T19:07:13.148Z,13.61
2023-03-06T19:09:40.096Z,13.60
2023-03-06T19:12:07.065Z,13.60
2023-03-06T19:14:33.750Z,13.61
2023-03-06T19:17:00.438Z,13.59
2023-03-06T19:19:29.369Z,13.59
2023-03-06T19:21:59.737Z,13.58
2023-03-06T19:24:26.725Z,13.61
2023-03-06T19:26:53.630Z,13.60
2023-03-06T19:29:20.348Z,13.60
2023-03-06T19:31:47.072Z,13.60
2023-03-06T19:34:13.753Z,13.60
2023-03-06T19:36:41.013Z,13.58
2023-03-06T19:39:08.417Z,13.60
2023-03-06T19:41:37.267Z,13.61
2023-03-06T19:44:06.948Z,13.59
2023-03-06T19:46:34.628Z,13.59
2023-03-06T19:49:03.849Z,13.58
2023-03-06T19:51:30.820Z,13.59
2023-03-06T19:53:58.112Z,13.60
2023-03-06T19:56:27.356Z,13.59
2023-03-06T19:58:54.519Z,13.60
2023-03-06T20:01:23.534Z,13.59
2023-03-06T20:03:53.031Z,13.59
2023-03-06T20:06:20.273Z,13.57
2023-03-06T20:08:47.587Z,13.61
2023-03-06T20:11:26.041Z,13.57
2023-03-06T20:13:53.585Z,13.56
2023-03-06T20:16:20.441Z,13.55
2023-03-06T20:18:47.112Z,13.53
2023-03-06T20:21:15.155Z,13.54
2023-03-06T20:23:42.430Z,13.47
2023-03-06T20:26:12.218Z,13.49
2023-03-06T20:28:40.869Z,13.51
2023-03-06T20:31:13.661Z,13.49
2023-03-06T20:33:40.401Z,13.51
2023-03-06T20:36:22.339Z,13.52
2023-03-06T20:38:49.553Z,13.52
2023-03-06T20:41:18.145Z,13.48
2023-03-06T20:43:45.066Z,13.52
2023-03-06T20:46:13.214Z,13.54
2023-03-06T20:48:41.627Z,13.50
2023-03-06T20:51:19.875Z,13.53
2023-03-06T20:53:49.103Z,13.54
2023-03-06T20:56:43.362Z,13.51
2023-03-06T20:59:14.440Z,13.53
2023-03-06T21:01:43.551Z,13.47
2023-03-06T21:04:13.913Z,13.51
2023-03-06T21:06:43.678Z,13.51
2023-03-06T21:09:10.942Z,13.51
2023-03-06T21:11:37.774Z,13.50
2023-03-06T21:14:04.472Z,13.44
2023-03-06T21:16:31.780Z,13.51
2023-03-06T21:19:00.133Z,13.48
2023-03-06T21:21:30.758Z,13.51
2023-03-06T21:23:57.998Z,13.50
2023-03-06T21:26:27.708Z,13.48
2023-03-06T21:28:57.233Z,13.48
2023-03-06T21:31:24.381Z,13.48
2023-03-06T21:33:51.073Z,13.48
2023-03-06T21:36:20.568Z,13.48
2023-03-06T21:38:48.774Z,13.49
2023-03-06T21:41:19.303Z,13.49
2023-03-06T21:43:46.024Z,13.49
2023-03-06T21:46:13.366Z,13.51
2023-03-06T21:48:40.114Z,13.50
2023-03-06T21:51:12.765Z,13.50
2023-03-06T21:53:45.531Z,13.51
2023-03-06T21:56:14.723Z,13.49
2023-03-06T21:58:41.834Z,13.50
2023-03-06T22:01:10.288Z,13.48
2023-03-06T22:03:37.637Z,13.46
2023-03-06T22:06:25.263Z,13.49
2023-03-06T22:08:52.646Z,13.47
2023-03-06T22:11:21.227Z,13.47
2023-03-06T22:13:48.750Z,13.47
2023-03-06T22:16:16.772Z,13.46
2023-03-06T22:18:48.470Z,13.47
2023-03-06T22:21:17.111Z,13.47
2023-03-06T22:23:44.103Z,13.46
2023-03-06T22:26:13.708Z,13.44
2023-03-06T22:28:41.972Z,13.48
2023-03-06T22:31:13.320Z,13.45
2023-03-06T22:33:40.511Z,13.46
2023-03-06T22:36:09.855Z,13.46
2023-03-06T22:38:39.275Z,13.45
2023-03-06T22:41:07.454Z,13.45
2023-03-06T22:43:34.958Z,13.46
2023-03-06T22:46:03.202Z,13.44
2023-03-06T22:48:30.566Z,13.46
2023-03-06T22:51:04.398Z,13.46
2023-03-06T22:53:31.942Z,13.44
2023-03-06T22:56:00.217Z,13.45
2023-03-06T22:58:28.533Z,13.43
2023-03-06T23:00:55.205Z,13.45
2023-03-06T23:03:21.894Z,13.45
2023-03-06T23:05:48.626Z,13.46
2023-03-06T23:08:15.243Z,13.49
2023-03-06T23:10:41.924Z,13.47
2023-03-06T23:13:08.578Z,13.48
2023-03-06T23:15:35.586Z,13.47
2023-03-06T23:18:02.586Z,13.46
2023-03-06T23:20:29.310Z,13.49
2023-03-06T23:22:56.005Z,13.47
2023-03-06T23:25:23.011Z,13.47
2023-03-06T23:27:49.714Z,13.48
2023-03-06T23:30:16.511Z,13.50
2023-03-06T23:32:45.737Z,13.51
2023-03-06T23:35:12.703Z,13.51
2023-03-06T23:37:39.398Z,13.50
2023-03-06T23:40:08.014Z,13.50
2023-03-06T23:42:34.754Z,13.47
2023-03-06T23:45:01.434Z,13.51
2023-03-06T23:47:32.215Z,13.49
2023-03-06T23:49:58.935Z,13.49
2023-03-06T23:52:25.648Z,13.53
2023-03-06T23:54:52.322Z,13.48
2023-03-06T23:57:18.911Z,13.51
2023-03-06T23:59:45.793Z,13.50
